sensor_id;sensor_type;location;lat;lon;timestamp;temperature;humidity
37322;DHT22;23697;48.684;9.032;2023-02-25T00:02:09;4.00;89.40
37322;DHT22;23697;48.684;9.032;2023-02-25T00:04:36;4.00;89.40
37322;DHT22;23697;48.684;9.032;2023-02-25T00:07:03;3.90;89.40
37322;DHT22;23697;48.684;9.032;2023-02-25T00:09:30;3.90;89.40
37322;DHT22;23697;48.684;9.032;2023-02-25T00:11:57;4.00;89.40
37322;DHT22;23697;48.684;9.032;2023-02-25T00:14:25;4.00;89.50
37322;DHT22;23697;48.684;9.032;2023-02-25T00:16:52;3.90;89.40
37322;DHT22;23697;48.684;9.032;2023-02-25T00:19:20;3.90;89.50
37322;DHT22;23697;48.684;9.032;2023-02-25T00:21:47;3.90;89.50
37322;DHT22;23697;48.684;9.032;2023-02-25T00:24:14;3.80;89.50
37322;DHT22;23697;48.684;9.032;2023-02-25T00:26:41;3.80;89.40
37322;DHT22;23697;48.684;9.032;2023-02-25T00:29:08;3.80;89.40
37322;DHT22;23697;48.684;9.032;2023-02-25T00:31:36;3.80;89.50
37322;DHT22;23697;48.684;9.032;2023-02-25T00:34:03;3.80;89.50
37322;DHT22;23697;48.684;9.032;2023-02-25T00:36:29;3.80;89.50
37322;DHT22;23697;48.684;9.032;2023-02-25T00:38:56;3.80;89.50
37322;DHT22;23697;48.684;9.032;2023-02-25T00:41:25;3.90;89.60
37322;DHT22;23697;48.684;9.032;2023-02-25T00:43:54;3.90;89.60
37322;DHT22;23697;48.684;9.032;2023-02-25T00:46:21;3.90;89.70
37322;DHT22;23697;48.684;9.032;2023-02-25T00:48:50;3.90;89.70
37322;DHT22;23697;48.684;9.032;2023-02-25T00:51:18;3.80;89.60
37322;DHT22;23697;48.684;9.032;2023-02-25T00:53:45;3.80;89.60
37322;DHT22;23697;48.684;9.032;2023-02-25T00:56:15;3.90;89.70
37322;DHT22;23697;48.684;9.032;2023-02-25T00:58:43;3.80;89.70
37322;DHT22;23697;48.684;9.032;2023-02-25T01:01:18;3.90;89.80
37322;DHT22;23697;48.684;9.032;2023-02-25T01:03:45;3.80;89.80
37322;DHT22;23697;48.684;9.032;2023-02-25T01:06:14;3.90;89.80
37322;DHT22;23697;48.684;9.032;2023-02-25T01:08:41;3.90;89.80
37322;DHT22;23697;48.684;9.032;2023-02-25T01:11:13;3.90;89.80
37322;DHT22;23697;48.684;9.032;2023-02-25T01:13:42;3.90;89.90
37322;DHT22;23697;48.684;9.032;2023-02-25T01:16:11;3.90;89.90
37322;DHT22;23697;48.684;9.032;2023-02-25T01:18:38;3.90;89.90
37322;DHT22;23697;48.684;9.032;2023-02-25T01:21:06;3.90;89.90
37322;DHT22;23697;48.684;9.032;2023-02-25T01:23:34;3.90;89.90
37322;DHT22;23697;48.684;9.032;2023-02-25T01:26:03;4.00;89.70
37322;DHT22;23697;48.684;9.032;2023-02-25T01:28:30;4.00;89.70
37322;DHT22;23697;48.684;9.032;2023-02-25T01:30:57;3.90;89.70
37322;DHT22;23697;48.684;9.032;2023-02-25T01:33:24;3.80;89.70
37322;DHT22;23697;48.684;9.032;2023-02-25T01:35:50;3.90;89.80
37322;DHT22;23697;48.684;9.032;2023-02-25T01:38:17;3.90;89.70
37322;DHT22;23697;48.684;9.032;2023-02-25T01:40:45;3.90;89.70
37322;DHT22;23697;48.684;9.032;2023-02-25T01:43:14;3.80;89.60
37322;DHT22;23697;48.684;9.032;2023-02-25T01:45:42;3.80;89.50
37322;DHT22;23697;48.684;9.032;2023-02-25T01:48:13;3.80;89.40
37322;DHT22;23697;48.684;9.032;2023-02-25T01:50:46;3.80;89.40
37322;DHT22;23697;48.684;9.032;2023-02-25T01:53:18;3.70;89.20
37322;DHT22;23697;48.684;9.032;2023-02-25T01:55:48;3.80;89.00
37322;DHT22;23697;48.684;9.032;2023-02-25T01:58:16;3.80;89.00
37322;DHT22;23697;48.684;9.032;2023-02-25T02:00:44;3.70;88.80
37322;DHT22;23697;48.684;9.032;2023-02-25T02:03:11;3.60;88.70
37322;DHT22;23697;48.684;9.032;2023-02-25T02:05:55;3.60;88.80
37322;DHT22;23697;48.684;9.032;2023-02-25T02:08:25;3.60;88.80
37322;DHT22;23697;48.684;9.032;2023-02-25T02:10:54;3.60;88.90
37322;DHT22;23697;48.684;9.032;2023-02-25T02:13:22;3.60;88.90
37322;DHT22;23697;48.684;9.032;2023-02-25T02:15:58;3.60;89.00
37322;DHT22;23697;48.684;9.032;2023-02-25T02:18:32;3.60;89.00
37322;DHT22;23697;48.684;9.032;2023-02-25T02:21:10;3.70;89.00
37322;DHT22;23697;48.684;9.032;2023-02-25T02:24:03;3.60;89.10
37322;DHT22;23697;48.684;9.032;2023-02-25T02:26:58;3.60;89.10
37322;DHT22;23697;48.684;9.032;2023-02-25T02:29:44;3.60;89.20
37322;DHT22;23697;48.684;9.032;2023-02-25T02:32:19;3.60;89.20
37322;DHT22;23697;48.684;9.032;2023-02-25T02:34:58;3.50;89.00
37322;DHT22;23697;48.684;9.032;2023-02-25T02:37:33;3.50;89.00
37322;DHT22;23697;48.684;9.032;2023-02-25T02:40:18;3.50;89.00
37322;DHT22;23697;48.684;9.032;2023-02-25T02:42:56;3.50;89.00
37322;DHT22;23697;48.684;9.032;2023-02-25T02:45:30;3.40;89.00
37322;DHT22;23697;48.684;9.032;2023-02-25T02:48:05;3.40;89.00
37322;DHT22;23697;48.684;9.032;2023-02-25T02:50:36;3.30;88.90
37322;DHT22;23697;48.684;9.032;2023-02-25T02:53:08;3.30;88.80
37322;DHT22;23697;48.684;9.032;2023-02-25T02:55:38;3.20;88.80
37322;DHT22;23697;48.684;9.032;2023-02-25T02:58:09;3.30;88.80
37322;DHT22;23697;48.684;9.032;2023-02-25T03:00:40;3.30;88.90
37322;DHT22;23697;48.684;9.032;2023-02-25T03:03:12;3.30;88.90
37322;DHT22;23697;48.684;9.032;2023-02-25T03:05:41;3.20;88.90
37322;DHT22;23697;48.684;9.032;2023-02-25T03:08:11;3.10;88.80
37322;DHT22;23697;48.684;9.032;2023-02-25T03:10:41;3.20;88.90
37322;DHT22;23697;48.684;9.032;2023-02-25T03:13:08;3.10;88.80
37322;DHT22;23697;48.684;9.032;2023-02-25T03:15:37;3.10;88.80
37322;DHT22;23697;48.684;9.032;2023-02-25T03:18:09;3.10;88.80
37322;DHT22;23697;48.684;9.032;2023-02-25T03:20:44;3.10;88.80
37322;DHT22;23697;48.684;9.032;2023-02-25T03:23:17;3.00;88.80
37322;DHT22;23697;48.684;9.032;2023-02-25T03:25:46;3.10;88.90
37322;DHT22;23697;48.684;9.032;2023-02-25T03:28:22;3.10;88.90
37322;DHT22;23697;48.684;9.032;2023-02-25T03:30:55;3.10;88.90
37322;DHT22;23697;48.684;9.032;2023-02-25T03:33:29;3.10;88.90
37322;DHT22;23697;48.684;9.032;2023-02-25T03:35:58;3.00;89.00
37322;DHT22;23697;48.684;9.032;2023-02-25T03:38:28;3.10;88.90
37322;DHT22;23697;48.684;9.032;2023-02-25T03:40:58;3.10;88.90
37322;DHT22;23697;48.684;9.032;2023-02-25T03:43:28;3.10;89.00
37322;DHT22;23697;48.684;9.032;2023-02-25T03:45:57;3.10;89.00
37322;DHT22;23697;48.684;9.032;2023-02-25T03:48:26;3.10;88.90
37322;DHT22;23697;48.684;9.032;2023-02-25T03:50:59;3.10;88.80
37322;DHT22;23697;48.684;9.032;2023-02-25T03:53:26;3.10;88.80
37322;DHT22;23697;48.684;9.032;2023-02-25T03:55:54;3.00;88.60
37322;DHT22;23697;48.684;9.032;2023-02-25T03:58:22;3.10;88.50
37322;DHT22;23697;48.684;9.032;2023-02-25T04:00:53;3.10;88.60
37322;DHT22;23697;48.684;9.032;2023-02-25T04:03:22;3.10;88.60
37322;DHT22;23697;48.684;9.032;2023-02-25T04:05:50;3.10;88.60
37322;DHT22;23697;48.684;9.032;2023-02-25T04:08:17;3.10;88.60
37322;DHT22;23697;48.684;9.032;2023-02-25T04:10:45;3.10;88.60
37322;DHT22;23697;48.684;9.032;2023-02-25T04:13:15;3.10;88.70
37322;DHT22;23697;48.684;9.032;2023-02-25T04:15:45;3.10;88.70
37322;DHT22;23697;48.684;9.032;2023-02-25T04:18:12;3.10;88.70
37322;DHT22;23697;48.684;9.032;2023-02-25T04:20:39;3.10;88.80
37322;DHT22;23697;48.684;9.032;2023-02-25T04:23:11;3.10;88.80
37322;DHT22;23697;48.684;9.032;2023-02-25T04:25:37;3.10;88.80
37322;DHT22;23697;48.684;9.032;2023-02-25T04:28:05;3.10;88.80
37322;DHT22;23697;48.684;9.032;2023-02-25T04:30:33;3.10;88.80
37322;DHT22;23697;48.684;9.032;2023-02-25T04:33:00;3.10;88.70
37322;DHT22;23697;48.684;9.032;2023-02-25T04:35:27;3.00;88.60
37322;DHT22;23697;48.684;9.032;2023-02-25T04:37:53;2.90;88.40
37322;DHT22;23697;48.684;9.032;2023-02-25T04:40:22;2.90;88.00
37322;DHT22;23697;48.684;9.032;2023-02-25T04:42:49;2.80;87.40
37322;DHT22;23697;48.684;9.032;2023-02-25T04:45:17;2.70;86.90
37322;DHT22;23697;48.684;9.032;2023-02-25T04:47:50;2.60;86.70
37322;DHT22;23697;48.684;9.032;2023-02-25T04:50:18;2.60;86.30
37322;DHT22;23697;48.684;9.032;2023-02-25T04:52:44;2.50;86.10
37322;DHT22;23697;48.684;9.032;2023-02-25T04:55:11;2.50;86.00
37322;DHT22;23697;48.684;9.032;2023-02-25T04:57:40;2.50;85.30
37322;DHT22;23697;48.684;9.032;2023-02-25T05:00:11;2.50;85.20
37322;DHT22;23697;48.684;9.032;2023-02-25T05:02:41;2.50;85.60
37322;DHT22;23697;48.684;9.032;2023-02-25T05:05:08;2.50;84.20
37322;DHT22;23697;48.684;9.032;2023-02-25T05:07:35;2.40;84.00
37322;DHT22;23697;48.684;9.032;2023-02-25T05:10:04;2.40;83.90
37322;DHT22;23697;48.684;9.032;2023-02-25T05:12:31;2.40;84.00
37322;DHT22;23697;48.684;9.032;2023-02-25T05:14:59;2.40;83.90
37322;DHT22;23697;48.684;9.032;2023-02-25T05:17:28;2.40;84.20
37322;DHT22;23697;48.684;9.032;2023-02-25T05:19:55;2.40;84.20
37322;DHT22;23697;48.684;9.032;2023-02-25T05:22:23;2.40;84.30
37322;DHT22;23697;48.684;9.032;2023-02-25T05:24:49;2.40;84.70
37322;DHT22;23697;48.684;9.032;2023-02-25T05:27:16;2.30;85.10
37322;DHT22;23697;48.684;9.032;2023-02-25T05:29:43;2.30;85.50
37322;DHT22;23697;48.684;9.032;2023-02-25T05:32:11;2.40;85.70
37322;DHT22;23697;48.684;9.032;2023-02-25T05:34:38;2.40;85.70
37322;DHT22;23697;48.684;9.032;2023-02-25T05:37:06;2.30;85.90
37322;DHT22;23697;48.684;9.032;2023-02-25T05:39:33;2.30;85.90
37322;DHT22;23697;48.684;9.032;2023-02-25T05:41:59;2.30;85.90
37322;DHT22;23697;48.684;9.032;2023-02-25T05:44:26;2.30;85.90
37322;DHT22;23697;48.684;9.032;2023-02-25T05:46:53;2.30;85.90
37322;DHT22;23697;48.684;9.032;2023-02-25T05:49:22;2.30;86.00
37322;DHT22;23697;48.684;9.032;2023-02-25T05:51:49;2.30;86.00
37322;DHT22;23697;48.684;9.032;2023-02-25T05:54:16;2.40;86.10
37322;DHT22;23697;48.684;9.032;2023-02-25T05:56:43;2.30;86.20
37322;DHT22;23697;48.684;9.032;2023-02-25T05:59:09;2.40;86.30
37322;DHT22;23697;48.684;9.032;2023-02-25T06:01:37;2.40;86.30
37322;DHT22;23697;48.684;9.032;2023-02-25T06:04:03;2.40;86.30
37322;DHT22;23697;48.684;9.032;2023-02-25T06:06:32;2.40;86.30
37322;DHT22;23697;48.684;9.032;2023-02-25T06:08:58;2.40;86.30
37322;DHT22;23697;48.684;9.032;2023-02-25T06:11:27;2.40;86.40
37322;DHT22;23697;48.684;9.032;2023-02-25T06:13:55;2.30;86.40
37322;DHT22;23697;48.684;9.032;2023-02-25T06:16:22;2.40;86.30
37322;DHT22;23697;48.684;9.032;2023-02-25T06:18:50;2.40;86.40
37322;DHT22;23697;48.684;9.032;2023-02-25T06:21:18;2.40;86.40
37322;DHT22;23697;48.684;9.032;2023-02-25T06:23:47;2.40;86.30
37322;DHT22;23697;48.684;9.032;2023-02-25T06:26:15;2.30;86.00
37322;DHT22;23697;48.684;9.032;2023-02-25T06:28:42;2.40;85.90
37322;DHT22;23697;48.684;9.032;2023-02-25T06:31:11;2.30;85.70
37322;DHT22;23697;48.684;9.032;2023-02-25T06:33:39;2.30;85.50
37322;DHT22;23697;48.684;9.032;2023-02-25T06:36:08;2.30;85.50
37322;DHT22;23697;48.684;9.032;2023-02-25T06:38:35;2.40;85.60
37322;DHT22;23697;48.684;9.032;2023-02-25T06:41:06;2.40;85.80
37322;DHT22;23697;48.684;9.032;2023-02-25T06:43:33;2.50;85.80
37322;DHT22;23697;48.684;9.032;2023-02-25T06:46:03;2.50;85.80
37322;DHT22;23697;48.684;9.032;2023-02-25T06:48:30;2.50;85.80
37322;DHT22;23697;48.684;9.032;2023-02-25T06:50:57;2.50;85.50
37322;DHT22;23697;48.684;9.032;2023-02-25T06:53:24;2.50;85.10
37322;DHT22;23697;48.684;9.032;2023-02-25T06:55:51;2.50;84.90
37322;DHT22;23697;48.684;9.032;2023-02-25T06:58:19;2.60;84.70
37322;DHT22;23697;48.684;9.032;2023-02-25T07:00:46;2.60;85.00
37322;DHT22;23697;48.684;9.032;2023-02-25T07:03:13;2.60;85.00
37322;DHT22;23697;48.684;9.032;2023-02-25T07:05:40;2.60;85.00
37322;DHT22;23697;48.684;9.032;2023-02-25T07:08:07;2.60;84.70
37322;DHT22;23697;48.684;9.032;2023-02-25T07:10:34;2.60;84.00
37322;DHT22;23697;48.684;9.032;2023-02-25T07:13:01;2.70;83.30
37322;DHT22;23697;48.684;9.032;2023-02-25T07:15:29;2.80;83.60
37322;DHT22;23697;48.684;9.032;2023-02-25T07:17:56;2.90;83.90
37322;DHT22;23697;48.684;9.032;2023-02-25T07:20:22;3.00;83.70
37322;DHT22;23697;48.684;9.032;2023-02-25T07:22:49;3.10;83.40
37322;DHT22;23697;48.684;9.032;2023-02-25T07:25:16;3.10;83.00
37322;DHT22;23697;48.684;9.032;2023-02-25T07:27:43;3.20;83.00
37322;DHT22;23697;48.684;9.032;2023-02-25T07:30:12;3.20;81.70
37322;DHT22;23697;48.684;9.032;2023-02-25T07:32:40;3.30;81.80
37322;DHT22;23697;48.684;9.032;2023-02-25T07:35:08;3.30;82.00
37322;DHT22;23697;48.684;9.032;2023-02-25T07:37:35;3.40;81.40
37322;DHT22;23697;48.684;9.032;2023-02-25T07:40:03;3.50;80.50
37322;DHT22;23697;48.684;9.032;2023-02-25T07:42:37;3.50;79.90
37322;DHT22;23697;48.684;9.032;2023-02-25T07:45:05;3.50;78.90
37322;DHT22;23697;48.684;9.032;2023-02-25T07:47:32;3.40;78.60
37322;DHT22;23697;48.684;9.032;2023-02-25T07:50:01;3.30;77.80
37322;DHT22;23697;48.684;9.032;2023-02-25T07:52:27;3.30;77.50
37322;DHT22;23697;48.684;9.032;2023-02-25T07:54:54;3.20;77.00
37322;DHT22;23697;48.684;9.032;2023-02-25T07:57:21;3.30;77.80
37322;DHT22;23697;48.684;9.032;2023-02-25T07:59:48;3.30;77.40
37322;DHT22;23697;48.684;9.032;2023-02-25T08:02:15;3.50;77.70
37322;DHT22;23697;48.684;9.032;2023-02-25T08:04:42;3.50;77.40
37322;DHT22;23697;48.684;9.032;2023-02-25T08:07:10;3.60;76.00
37322;DHT22;23697;48.684;9.032;2023-02-25T08:09:37;3.80;76.50
37322;DHT22;23697;48.684;9.032;2023-02-25T08:12:06;3.90;74.80
37322;DHT22;23697;48.684;9.032;2023-02-25T08:14:33;4.00;73.30
37322;DHT22;23697;48.684;9.032;2023-02-25T08:17:00;4.30;74.20
37322;DHT22;23697;48.684;9.032;2023-02-25T08:19:27;4.50;72.50
37322;DHT22;23697;48.684;9.032;2023-02-25T08:21:54;4.60;71.40
37322;DHT22;23697;48.684;9.032;2023-02-25T08:24:22;4.70;71.50
37322;DHT22;23697;48.684;9.032;2023-02-25T08:26:49;4.90;70.00
37322;DHT22;23697;48.684;9.032;2023-02-25T08:29:16;5.10;72.00
37322;DHT22;23697;48.684;9.032;2023-02-25T08:31:43;5.10;70.20
37322;DHT22;23697;48.684;9.032;2023-02-25T08:34:11;5.20;70.70
37322;DHT22;23697;48.684;9.032;2023-02-25T08:36:38;5.40;70.00
37322;DHT22;23697;48.684;9.032;2023-02-25T08:39:05;5.40;71.00
37322;DHT22;23697;48.684;9.032;2023-02-25T08:41:34;5.40;70.60
37322;DHT22;23697;48.684;9.032;2023-02-25T08:44:02;5.30;71.90
37322;DHT22;23697;48.684;9.032;2023-02-25T08:46:31;4.90;70.50
37322;DHT22;23697;48.684;9.032;2023-02-25T08:48:58;4.70;70.70
37322;DHT22;23697;48.684;9.032;2023-02-25T08:51:25;4.40;70.30
37322;DHT22;23697;48.684;9.032;2023-02-25T08:53:59;4.20;71.30
37322;DHT22;23697;48.684;9.032;2023-02-25T08:56:26;4.10;73.20
37322;DHT22;23697;48.684;9.032;2023-02-25T08:58:55;4.10;72.00
37322;DHT22;23697;48.684;9.032;2023-02-25T09:01:22;4.10;71.80
37322;DHT22;23697;48.684;9.032;2023-02-25T09:03:49;4.10;73.00
37322;DHT22;23697;48.684;9.032;2023-02-25T09:06:20;4.10;72.20
37322;DHT22;23697;48.684;9.032;2023-02-25T09:08:48;4.10;73.20
37322;DHT22;23697;48.684;9.032;2023-02-25T09:11:15;4.20;73.40
37322;DHT22;23697;48.684;9.032;2023-02-25T09:13:42;4.40;73.20
37322;DHT22;23697;48.684;9.032;2023-02-25T09:16:10;4.50;73.00
37322;DHT22;23697;48.684;9.032;2023-02-25T09:18:41;4.60;73.20
37322;DHT22;23697;48.684;9.032;2023-02-25T09:21:08;4.60;71.10
37322;DHT22;23697;48.684;9.032;2023-02-25T09:23:35;4.60;72.90
37322;DHT22;23697;48.684;9.032;2023-02-25T09:26:03;4.60;72.50
37322;DHT22;23697;48.684;9.032;2023-02-25T09:28:29;4.70;71.00
37322;DHT22;23697;48.684;9.032;2023-02-25T09:30:57;4.90;71.80
37322;DHT22;23697;48.684;9.032;2023-02-25T09:33:26;5.10;71.40
37322;DHT22;23697;48.684;9.032;2023-02-25T09:35:53;5.40;69.70
37322;DHT22;23697;48.684;9.032;2023-02-25T09:38:20;5.80;67.30
37322;DHT22;23697;48.684;9.032;2023-02-25T09:40:48;6.30;68.20
37322;DHT22;23697;48.684;9.032;2023-02-25T09:43:20;6.60;65.30
37322;DHT22;23697;48.684;9.032;2023-02-25T09:45:51;6.90;65.00
37322;DHT22;23697;48.684;9.032;2023-02-25T09:48:22;7.10;65.40
37322;DHT22;23697;48.684;9.032;2023-02-25T09:50:56;7.50;64.90
37322;DHT22;23697;48.684;9.032;2023-02-25T09:53:32;7.40;64.20
37322;DHT22;23697;48.684;9.032;2023-02-25T09:56:00;7.10;61.80
37322;DHT22;23697;48.684;9.032;2023-02-25T09:58:34;6.50;60.90
37322;DHT22;23697;48.684;9.032;2023-02-25T10:01:05;5.90;60.70
37322;DHT22;23697;48.684;9.032;2023-02-25T10:03:52;5.30;58.90
37322;DHT22;23697;48.684;9.032;2023-02-25T10:06:27;5.10;60.20
37322;DHT22;23697;48.684;9.032;2023-02-25T10:09:03;5.00;61.30
37322;DHT22;23697;48.684;9.032;2023-02-25T10:11:41;5.40;64.90
37322;DHT22;23697;48.684;9.032;2023-02-25T10:14:21;5.90;62.90
37322;DHT22;23697;48.684;9.032;2023-02-25T10:17:00;6.00;61.40
37322;DHT22;23697;48.684;9.032;2023-02-25T10:19:42;6.10;61.20
37322;DHT22;23697;48.684;9.032;2023-02-25T10:22:25;6.10;61.90
37322;DHT22;23697;48.684;9.032;2023-02-25T10:24:58;5.90;61.60
37322;DHT22;23697;48.684;9.032;2023-02-25T10:27:27;5.80;60.10
37322;DHT22;23697;48.684;9.032;2023-02-25T10:29:58;5.90;61.80
37322;DHT22;23697;48.684;9.032;2023-02-25T10:32:31;5.90;60.70
37322;DHT22;23697;48.684;9.032;2023-02-25T10:35:00;5.70;59.40
37322;DHT22;23697;48.684;9.032;2023-02-25T10:37:31;5.60;59.70
37322;DHT22;23697;48.684;9.032;2023-02-25T10:40:00;5.50;57.80
37322;DHT22;23697;48.684;9.032;2023-02-25T10:42:28;5.50;62.00
37322;DHT22;23697;48.684;9.032;2023-02-25T10:44:59;5.60;63.50
37322;DHT22;23697;48.684;9.032;2023-02-25T10:47:33;5.70;61.80
37322;DHT22;23697;48.684;9.032;2023-02-25T10:50:13;5.90;62.90
37322;DHT22;23697;48.684;9.032;2023-02-25T10:52:54;6.10;61.00
37322;DHT22;23697;48.684;9.032;2023-02-25T10:55:45;6.40;62.20
37322;DHT22;23697;48.684;9.032;2023-02-25T10:58:26;6.60;59.10
37322;DHT22;23697;48.684;9.032;2023-02-25T11:00:59;6.80;58.80
37322;DHT22;23697;48.684;9.032;2023-02-25T11:03:29;7.10;58.20
37322;DHT22;23697;48.684;9.032;2023-02-25T11:06:12;7.10;56.50
37322;DHT22;23697;48.684;9.032;2023-02-25T11:08:41;7.20;57.20
37322;DHT22;23697;48.684;9.032;2023-02-25T11:11:14;7.10;56.50
37322;DHT22;23697;48.684;9.032;2023-02-25T11:13:42;6.90;56.90
37322;DHT22;23697;48.684;9.032;2023-02-25T11:16:11;6.70;58.80
37322;DHT22;23697;48.684;9.032;2023-02-25T11:18:39;6.40;57.80
37322;DHT22;23697;48.684;9.032;2023-02-25T11:21:09;6.10;58.40
37322;DHT22;23697;48.684;9.032;2023-02-25T11:23:44;6.00;60.70
37322;DHT22;23697;48.684;9.032;2023-02-25T11:26:14;5.90;61.30
37322;DHT22;23697;48.684;9.032;2023-02-25T11:28:44;5.90;61.40
37322;DHT22;23697;48.684;9.032;2023-02-25T11:31:15;5.90;62.60
37322;DHT22;23697;48.684;9.032;2023-02-25T11:33:48;6.00;61.90
37322;DHT22;23697;48.684;9.032;2023-02-25T11:36:20;6.10;61.80
37322;DHT22;23697;48.684;9.032;2023-02-25T11:38:50;6.10;60.10
37322;DHT22;23697;48.684;9.032;2023-02-25T11:41:30;6.20;60.50
37322;DHT22;23697;48.684;9.032;2023-02-25T11:43:57;6.30;59.30
37322;DHT22;23697;48.684;9.032;2023-02-25T11:46:36;6.30;58.10
37322;DHT22;23697;48.684;9.032;2023-02-25T11:49:13;6.50;60.90
37322;DHT22;23697;48.684;9.032;2023-02-25T11:51:47;6.60;58.80
37322;DHT22;23697;48.684;9.032;2023-02-25T11:54:24;6.60;58.70
37322;DHT22;23697;48.684;9.032;2023-02-25T11:56:58;6.50;60.60
37322;DHT22;23697;48.684;9.032;2023-02-25T11:59:35;6.30;60.40
37322;DHT22;23697;48.684;9.032;2023-02-25T12:02:25;6.10;60.70
37322;DHT22;23697;48.684;9.032;2023-02-25T12:05:20;6.00;60.40
37322;DHT22;23697;48.684;9.032;2023-02-25T12:08:09;5.80;61.40
37322;DHT22;23697;48.684;9.032;2023-02-25T12:13:55;5.80;61.80
37322;DHT22;23697;48.684;9.032;2023-02-25T12:19:37;5.70;62.60
37322;DHT22;23697;48.684;9.032;2023-02-25T12:22:20;5.70;61.20
37322;DHT22;23697;48.684;9.032;2023-02-25T12:28:06;5.50;63.00
37322;DHT22;23697;48.684;9.032;2023-02-25T12:34:10;5.60;63.70
37322;DHT22;23697;48.684;9.032;2023-02-25T12:36:59;5.40;63.60
37322;DHT22;23697;48.684;9.032;2023-02-25T12:39:46;5.40;64.70
37322;DHT22;23697;48.684;9.032;2023-02-25T12:42:37;5.50;65.80
37322;DHT22;23697;48.684;9.032;2023-02-25T12:45:44;5.70;66.20
37322;DHT22;23697;48.684;9.032;2023-02-25T12:48:32;5.90;64.80
37322;DHT22;23697;48.684;9.032;2023-02-25T12:51:27;5.90;61.90
37322;DHT22;23697;48.684;9.032;2023-02-25T12:54:06;5.90;63.60
37322;DHT22;23697;48.684;9.032;2023-02-25T12:56:59;5.90;65.60
37322;DHT22;23697;48.684;9.032;2023-02-25T12:59:45;5.60;64.60
37322;DHT22;23697;48.684;9.032;2023-02-25T13:02:32;5.50;64.70
37322;DHT22;23697;48.684;9.032;2023-02-25T13:05:20;5.30;63.90
37322;DHT22;23697;48.684;9.032;2023-02-25T13:08:04;5.20;65.60
37322;DHT22;23697;48.684;9.032;2023-02-25T13:10:49;5.10;66.40
37322;DHT22;23697;48.684;9.032;2023-02-25T13:13:38;5.10;64.90
37322;DHT22;23697;48.684;9.032;2023-02-25T13:16:22;5.10;65.30
37322;DHT22;23697;48.684;9.032;2023-02-25T13:19:08;5.00;66.60
37322;DHT22;23697;48.684;9.032;2023-02-25T13:21:55;4.90;65.80
37322;DHT22;23697;48.684;9.032;2023-02-25T13:24:32;4.90;67.00
37322;DHT22;23697;48.684;9.032;2023-02-25T13:27:40;4.80;68.50
37322;DHT22;23697;48.684;9.032;2023-02-25T13:30:45;4.50;67.80
37322;DHT22;23697;48.684;9.032;2023-02-25T13:33:36;4.40;70.10
37322;DHT22;23697;48.684;9.032;2023-02-25T13:39:41;4.00;69.20
37322;DHT22;23697;48.684;9.032;2023-02-25T13:42:23;4.00;70.30
37322;DHT22;23697;48.684;9.032;2023-02-25T13:45:23;4.00;69.90
37322;DHT22;23697;48.684;9.032;2023-02-25T13:48:07;4.10;71.00
37322;DHT22;23697;48.684;9.032;2023-02-25T13:50:54;4.10;71.70
37322;DHT22;23697;48.684;9.032;2023-02-25T13:53:49;4.30;70.30
37322;DHT22;23697;48.684;9.032;2023-02-25T13:56:41;4.30;70.40
37322;DHT22;23697;48.684;9.032;2023-02-25T13:59:52;4.40;69.20
37322;DHT22;23697;48.684;9.032;2023-02-25T14:03:00;4.40;68.50
37322;DHT22;23697;48.684;9.032;2023-02-25T14:05:40;4.40;67.50
37322;DHT22;23697;48.684;9.032;2023-02-25T14:08:35;4.50;68.00
37322;DHT22;23697;48.684;9.032;2023-02-25T14:11:23;4.60;67.10
37322;DHT22;23697;48.684;9.032;2023-02-25T14:14:18;4.70;68.00
37322;DHT22;23697;48.684;9.032;2023-02-25T14:17:08;4.80;67.90
37322;DHT22;23697;48.684;9.032;2023-02-25T14:19:44;5.00;67.00
37322;DHT22;23697;48.684;9.032;2023-02-25T14:22:28;5.00;66.20
37322;DHT22;23697;48.684;9.032;2023-02-25T14:25:14;5.10;65.40
37322;DHT22;23697;48.684;9.032;2023-02-25T14:27:50;5.10;66.00
37322;DHT22;23697;48.684;9.032;2023-02-25T14:30:31;5.10;65.40
37322;DHT22;23697;48.684;9.032;2023-02-25T14:33:22;5.00;65.70
37322;DHT22;23697;48.684;9.032;2023-02-25T14:36:01;4.90;65.90
37322;DHT22;23697;48.684;9.032;2023-02-25T14:38:40;4.80;65.80
37322;DHT22;23697;48.684;9.032;2023-02-25T14:41:26;4.80;67.10
37322;DHT22;23697;48.684;9.032;2023-02-25T14:43:56;5.00;65.80
37322;DHT22;23697;48.684;9.032;2023-02-25T14:46:30;5.10;65.60
37322;DHT22;23697;48.684;9.032;2023-02-25T14:49:05;5.10;65.50
37322;DHT22;23697;48.684;9.032;2023-02-25T14:51:53;5.10;62.70
37322;DHT22;23697;48.684;9.032;2023-02-25T14:55:03;4.90;62.50
37322;DHT22;23697;48.684;9.032;2023-02-25T15:00:41;4.70;63.80
37322;DHT22;23697;48.684;9.032;2023-02-25T15:03:26;4.70;64.40
37322;DHT22;23697;48.684;9.032;2023-02-25T15:06:02;4.70;65.10
37322;DHT22;23697;48.684;9.032;2023-02-25T15:08:47;4.80;65.00
37322;DHT22;23697;48.684;9.032;2023-02-25T15:11:31;5.00;64.70
37322;DHT22;23697;48.684;9.032;2023-02-25T15:14:20;5.00;64.40
37322;DHT22;23697;48.684;9.032;2023-02-25T15:17:19;5.00;64.00
37322;DHT22;23697;48.684;9.032;2023-02-25T15:20:01;5.10;64.90
37322;DHT22;23697;48.684;9.032;2023-02-25T15:22:30;5.20;63.60
37322;DHT22;23697;48.684;9.032;2023-02-25T15:27:57;5.00;62.80
37322;DHT22;23697;48.684;9.032;2023-02-25T15:33:36;5.00;64.20
37322;DHT22;23697;48.684;9.032;2023-02-25T15:36:19;5.10;63.50
37322;DHT22;23697;48.684;9.032;2023-02-25T15:38:48;5.00;63.00
37322;DHT22;23697;48.684;9.032;2023-02-25T15:41:39;5.00;63.70
37322;DHT22;23697;48.684;9.032;2023-02-25T15:44:29;4.80;62.80
37322;DHT22;23697;48.684;9.032;2023-02-25T15:47:23;4.80;63.10
37322;DHT22;23697;48.684;9.032;2023-02-25T15:49:53;4.70;63.30
37322;DHT22;23697;48.684;9.032;2023-02-25T15:52:50;4.70;63.10
37322;DHT22;23697;48.684;9.032;2023-02-25T15:55:32;4.60;64.50
37322;DHT22;23697;48.684;9.032;2023-02-25T15:57:59;4.60;64.90
37322;DHT22;23697;48.684;9.032;2023-02-25T16:01:00;4.60;65.20
37322;DHT22;23697;48.684;9.032;2023-02-25T16:03:38;4.50;65.90
37322;DHT22;23697;48.684;9.032;2023-02-25T16:06:11;4.50;65.60
37322;DHT22;23697;48.684;9.032;2023-02-25T16:08:44;4.40;65.60
37322;DHT22;23697;48.684;9.032;2023-02-25T16:14:09;4.30;63.70
37322;DHT22;23697;48.684;9.032;2023-02-25T16:16:42;4.20;65.90
37322;DHT22;23697;48.684;9.032;2023-02-25T16:19:15;4.20;65.70
37322;DHT22;23697;48.684;9.032;2023-02-25T16:21:47;4.10;65.40
37322;DHT22;23697;48.684;9.032;2023-02-25T16:24:15;4.10;64.90
37322;DHT22;23697;48.684;9.032;2023-02-25T16:26:51;4.10;65.60
37322;DHT22;23697;48.684;9.032;2023-02-25T16:29:32;4.10;64.90
37322;DHT22;23697;48.684;9.032;2023-02-25T16:32:03;4.00;65.00
37322;DHT22;23697;48.684;9.032;2023-02-25T16:34:39;3.90;66.40
37322;DHT22;23697;48.684;9.032;2023-02-25T16:37:14;3.70;68.30
37322;DHT22;23697;48.684;9.032;2023-02-25T16:39:42;3.70;69.80
37322;DHT22;23697;48.684;9.032;2023-02-25T16:42:11;3.50;71.50
37322;DHT22;23697;48.684;9.032;2023-02-25T16:44:40;3.30;72.40
37322;DHT22;23697;48.684;9.032;2023-02-25T16:47:20;3.30;73.30
37322;DHT22;23697;48.684;9.032;2023-02-25T16:49:49;3.20;74.00
37322;DHT22;23697;48.684;9.032;2023-02-25T16:52:22;3.10;74.60